sensor_id;sensor_type;location;lat;lon;timestamp;P1;durP1;ratioP1;P2;durP2;ratioP2
16737;SDS011;17906;47.684;10.806;2022-08-20T00:01:46;10.93;;;7.93;;
16737;SDS011;17906;47.684;10.806;2022-08-20T00:04:13;11.33;;;7.80;;
16737;SDS011;17906;47.684;10.806;2022-08-20T00:06:40;11.77;;;8.30;;
16737;SDS011;17906;47.684;10.806;2022-08-20T00:09:06;9.63;;;7.43;;
16737;SDS011;17906;47.684;10.806;2022-08-20T00:11:33;10.13;;;7.67;;
16737;SDS011;17906;47.684;10.806;2022-08-20T00:14:04;12.63;;;7.60;;
16737;SDS011;17906;47.684;10.806;2022-08-20T00:16:32;9.57;;;7.37;;
16737;SDS011;17906;47.684;10.806;2022-08-20T00:19:02;9.40;;;7.17;;
16737;SDS011;17906;47.684;10.806;2022-08-20T00:21:31;10.32;;;7.72;;
16737;SDS011;17906;47.684;10.806;2022-08-20T00:23:57;9.97;;;7.20;;
16737;SDS011;17906;47.684;10.806;2022-08-20T00:26:25;9.40;;;6.63;;
16737;SDS011;17906;47.684;10.806;2022-08-20T00:28:51;10.30;;;6.90;;
16737;SDS011;17906;47.684;10.806;2022-08-20T00:31:20;10.47;;;7.40;;
16737;SDS011;17906;47.684;10.806;2022-08-20T00:33:48;11.27;;;6.93;;
16737;SDS011;17906;47.684;10.806;2022-08-20T00:36:16;11.55;;;7.22;;
16737;SDS011;17906;47.684;10.806;2022-08-20T00:38:44;9.85;;;6.78;;
16737;SDS011;17906;47.684;10.806;2022-08-20T00:41:13;10.75;;;7.65;;
16737;SDS011;17906;47.684;10.806;2022-08-20T00:43:43;11.77;;;7.90;;
16737;SDS011;17906;47.684;10.806;2022-08-20T00:46:14;11.45;;;8.23;;
16737;SDS011;17906;47.684;10.806;2022-08-20T00:48:45;13.77;;;8.30;;
16737;SDS011;17906;47.684;10.806;2022-08-20T00:51:16;12.20;;;8.07;;
16737;SDS011;17906;47.684;10.806;2022-08-20T00:53:51;10.48;;;7.97;;
16737;SDS011;17906;47.684;10.806;2022-08-20T00:56:20;12.30;;;9.15;;
16737;SDS011;17906;47.684;10.806;2022-08-20T00:58:48;12.10;;;8.85;;
16737;SDS011;17906;47.684;10.806;2022-08-20T01:01:16;15.37;;;9.37;;
16737;SDS011;17906;47.684;10.806;2022-08-20T01:03:45;12.85;;;9.02;;
16737;SDS011;17906;47.684;10.806;2022-08-20T01:06:12;13.43;;;9.40;;
16737;SDS011;17906;47.684;10.806;2022-08-20T01:08:38;16.97;;;9.27;;
16737;SDS011;17906;47.684;10.806;2022-08-20T01:11:07;12.57;;;8.73;;
16737;SDS011;17906;47.684;10.806;2022-08-20T01:13:37;12.20;;;8.63;;
16737;SDS011;17906;47.684;10.806;2022-08-20T01:16:07;12.23;;;9.07;;
16737;SDS011;17906;47.684;10.806;2022-08-20T01:18:40;16.67;;;9.93;;
16737;SDS011;17906;47.684;10.806;2022-08-20T01:21:08;16.13;;;10.18;;
16737;SDS011;17906;47.684;10.806;2022-08-20T01:23:38;13.73;;;9.67;;
16737;SDS011;17906;47.684;10.806;2022-08-20T01:26:12;14.77;;;9.70;;
16737;SDS011;17906;47.684;10.806;2022-08-20T01:28:42;14.43;;;10.52;;
16737;SDS011;17906;47.684;10.806;2022-08-20T01:31:13;13.93;;;9.50;;
16737;SDS011;17906;47.684;10.806;2022-08-20T01:33:41;15.73;;;10.07;;
16737;SDS011;17906;47.684;10.806;2022-08-20T01:36:10;15.17;;;10.63;;
16737;SDS011;17906;47.684;10.806;2022-08-20T01:38:37;19.30;;;12.37;;
16737;SDS011;17906;47.684;10.806;2022-08-20T01:41:27;17.43;;;11.50;;
16737;SDS011;17906;47.684;10.806;2022-08-20T01:44:04;17.43;;;11.50;;
16737;SDS011;17906;47.684;10.806;2022-08-20T01:46:33;15.90;;;11.65;;
16737;SDS011;17906;47.684;10.806;2022-08-20T01:49:06;16.67;;;11.40;;
16737;SDS011;17906;47.684;10.806;2022-08-20T01:51:34;18.93;;;12.47;;
16737;SDS011;17906;47.684;10.806;2022-08-20T01:54:01;19.27;;;12.27;;
16737;SDS011;17906;47.684;10.806;2022-08-20T01:56:29;18.53;;;11.83;;
16737;SDS011;17906;47.684;10.806;2022-08-20T01:59:00;16.90;;;10.90;;
16737;SDS011;17906;47.684;10.806;2022-08-20T02:01:31;16.00;;;11.57;;
16737;SDS011;17906;47.684;10.806;2022-08-20T02:04:01;16.73;;;11.27;;
16737;SDS011;17906;47.684;10.806;2022-08-20T02:06:32;16.10;;;11.57;;
16737;SDS011;17906;47.684;10.806;2022-08-20T02:09:02;19.37;;;11.90;;
16737;SDS011;17906;47.684;10.806;2022-08-20T02:11:32;16.43;;;11.10;;
16737;SDS011;17906;47.684;10.806;2022-08-20T02:14:00;16.75;;;11.27;;
16737;SDS011;17906;47.684;10.806;2022-08-20T02:16:29;16.33;;;11.53;;
16737;SDS011;17906;47.684;10.806;2022-08-20T02:18:59;18.73;;;11.77;;
16737;SDS011;17906;47.684;10.806;2022-08-20T02:21:29;16.37;;;11.20;;
16737;SDS011;17906;47.684;10.806;2022-08-20T02:23:58;16.03;;;11.43;;
16737;SDS011;17906;47.684;10.806;2022-08-20T02:26:25;15.57;;;11.23;;
16737;SDS011;17906;47.684;10.806;2022-08-20T02:28:56;17.05;;;11.43;;
16737;SDS011;17906;47.684;10.806;2022-08-20T02:31:23;13.98;;;10.85;;
16737;SDS011;17906;47.684;10.806;2022-08-20T02:33:50;15.27;;;10.70;;
16737;SDS011;17906;47.684;10.806;2022-08-20T02:36:18;15.32;;;11.25;;
16737;SDS011;17906;47.684;10.806;2022-08-20T02:38:45;15.63;;;11.20;;
16737;SDS011;17906;47.684;10.806;2022-08-20T02:41:12;15.50;;;10.47;;
16737;SDS011;17906;47.684;10.806;2022-08-20T02:43:39;15.70;;;10.60;;
16737;SDS011;17906;47.684;10.806;2022-08-20T02:46:07;12.60;;;9.48;;
16737;SDS011;17906;47.684;10.806;2022-08-20T02:48:34;16.05;;;10.63;;
16737;SDS011;17906;47.684;10.806;2022-08-20T02:51:03;16.57;;;11.00;;
16737;SDS011;17906;47.684;10.806;2022-08-20T02:53:32;16.17;;;10.77;;
16737;SDS011;17906;47.684;10.806;2022-08-20T02:56:01;15.57;;;10.82;;
16737;SDS011;17906;47.684;10.806;2022-08-20T02:58:29;18.40;;;12.18;;
16737;SDS011;17906;47.684;10.806;2022-08-20T03:00:56;17.98;;;11.38;;
16737;SDS011;17906;47.684;10.806;2022-08-20T03:03:25;17.93;;;10.77;;
16737;SDS011;17906;47.684;10.806;2022-08-20T03:05:53;19.33;;;11.77;;
16737;SDS011;17906;47.684;10.806;2022-08-20T03:08:21;17.63;;;12.03;;
16737;SDS011;17906;47.684;10.806;2022-08-20T03:10:49;19.43;;;13.03;;
16737;SDS011;17906;47.684;10.806;2022-08-20T03:13:17;18.90;;;12.87;;
16737;SDS011;17906;47.684;10.806;2022-08-20T03:15:46;22.35;;;13.27;;
16737;SDS011;17906;47.684;10.806;2022-08-20T03:18:16;21.70;;;13.23;;
16737;SDS011;17906;47.684;10.806;2022-08-20T03:20:45;21.77;;;14.27;;
16737;SDS011;17906;47.684;10.806;2022-08-20T03:23:12;24.53;;;14.50;;
16737;SDS011;17906;47.684;10.806;2022-08-20T03:25:39;23.37;;;14.83;;
16737;SDS011;17906;47.684;10.806;2022-08-20T03:28:06;21.40;;;14.20;;
16737;SDS011;17906;47.684;10.806;2022-08-20T03:30:33;22.37;;;14.60;;
16737;SDS011;17906;47.684;10.806;2022-08-20T03:33:01;23.13;;;14.37;;
16737;SDS011;17906;47.684;10.806;2022-08-20T03:35:29;21.40;;;13.45;;
16737;SDS011;17906;47.684;10.806;2022-08-20T03:37:58;21.33;;;14.20;;
16737;SDS011;17906;47.684;10.806;2022-08-20T03:40:26;22.67;;;15.00;;
16737;SDS011;17906;47.684;10.806;2022-08-20T03:42:54;24.85;;;15.57;;
16737;SDS011;17906;47.684;10.806;2022-08-20T03:45:21;22.77;;;14.83;;
16737;SDS011;17906;47.684;10.806;2022-08-20T03:47:49;23.77;;;16.05;;
16737;SDS011;17906;47.684;10.806;2022-08-20T03:50:18;23.30;;;15.17;;
16737;SDS011;17906;47.684;10.806;2022-08-20T03:52:46;21.67;;;14.90;;
16737;SDS011;17906;47.684;10.806;2022-08-20T03:55:14;24.33;;;15.20;;
16737;SDS011;17906;47.684;10.806;2022-08-20T03:57:42;24.63;;;15.67;;
16737;SDS011;17906;47.684;10.806;2022-08-20T04:00:10;28.65;;;16.48;;
16737;SDS011;17906;47.684;10.806;2022-08-20T04:02:38;23.57;;;15.43;;
16737;SDS011;17906;47.684;10.806;2022-08-20T04:05:05;22.13;;;14.63;;
16737;SDS011;17906;47.684;10.806;2022-08-20T04:07:33;27.13;;;16.17;;
16737;SDS011;17906;47.684;10.806;2022-08-20T04:10:03;30.20;;;15.50;;
16737;SDS011;17906;47.684;10.806;2022-08-20T04:12:32;23.70;;;15.60;;
16737;SDS011;17906;47.684;10.806;2022-08-20T04:14:59;21.85;;;15.30;;
16737;SDS011;17906;47.684;10.806;2022-08-20T04:17:27;23.80;;;16.10;;
16737;SDS011;17906;47.684;10.806;2022-08-20T04:19:53;24.47;;;15.70;;
16737;SDS011;17906;47.684;10.806;2022-08-20T04:22:20;27.77;;;15.60;;
16737;SDS011;17906;47.684;10.806;2022-08-20T04:24:47;25.40;;;15.73;;
16737;SDS011;17906;47.684;10.806;2022-08-20T04:27:14;22.57;;;15.40;;
16737;SDS011;17906;47.684;10.806;2022-08-20T04:29:42;22.30;;;14.98;;
16737;SDS011;17906;47.684;10.806;2022-08-20T04:32:09;22.83;;;14.80;;
16737;SDS011;17906;47.684;10.806;2022-08-20T04:34:36;23.30;;;14.82;;
16737;SDS011;17906;47.684;10.806;2022-08-20T04:37:03;21.05;;;14.35;;
16737;SDS011;17906;47.684;10.806;2022-08-20T04:39:31;21.05;;;14.65;;
16737;SDS011;17906;47.684;10.806;2022-08-20T04:41:58;22.73;;;14.18;;
16737;SDS011;17906;47.684;10.806;2022-08-20T04:44:23;23.02;;;14.82;;
16737;SDS011;17906;47.684;10.806;2022-08-20T04:46:51;20.58;;;13.98;;
16737;SDS011;17906;47.684;10.806;2022-08-20T04:49:18;20.80;;;14.20;;
16737;SDS011;17906;47.684;10.806;2022-08-20T04:51:50;21.80;;;14.80;;
16737;SDS011;17906;47.684;10.806;2022-08-20T04:54:17;27.45;;;15.30;;
16737;SDS011;17906;47.684;10.806;2022-08-20T04:56:43;21.50;;;14.38;;
16737;SDS011;17906;47.684;10.806;2022-08-20T04:59:12;22.38;;;14.43;;
16737;SDS011;17906;47.684;10.806;2022-08-20T05:01:39;23.70;;;14.82;;
16737;SDS011;17906;47.684;10.806;2022-08-20T05:04:07;19.98;;;14.23;;
16737;SDS011;17906;47.684;10.806;2022-08-20T05:06:33;26.80;;;14.70;;
16737;SDS011;17906;47.684;10.806;2022-08-20T05:09:00;21.48;;;13.70;;
16737;SDS011;17906;47.684;10.806;2022-08-20T05:11:27;23.35;;;14.57;;
16737;SDS011;17906;47.684;10.806;2022-08-20T05:13:54;24.15;;;14.65;;
16737;SDS011;17906;47.684;10.806;2022-08-20T05:16:21;20.50;;;14.02;;
16737;SDS011;17906;47.684;10.806;2022-08-20T05:18:48;21.80;;;14.23;;
16737;SDS011;17906;47.684;10.806;2022-08-20T05:21:17;20.17;;;13.90;;
16737;SDS011;17906;47.684;10.806;2022-08-20T05:23:44;21.50;;;14.03;;
16737;SDS011;17906;47.684;10.806;2022-08-20T05:26:10;21.45;;;13.98;;
16737;SDS011;17906;47.684;10.806;2022-08-20T05:28:39;21.93;;;14.80;;
16737;SDS011;17906;47.684;10.806;2022-08-20T05:31:06;17.92;;;12.73;;
16737;SDS011;17906;47.684;10.806;2022-08-20T05:33:34;19.73;;;13.40;;
16737;SDS011;17906;47.684;10.806;2022-08-20T05:36:02;22.07;;;14.70;;
16737;SDS011;17906;47.684;10.806;2022-08-20T05:38:33;20.17;;;13.00;;
16737;SDS011;17906;47.684;10.806;2022-08-20T05:41:00;20.37;;;13.77;;
16737;SDS011;17906;47.684;10.806;2022-08-20T05:43:27;20.35;;;13.63;;
16737;SDS011;17906;47.684;10.806;2022-08-20T05:45:55;22.70;;;14.15;;
16737;SDS011;17906;47.684;10.806;2022-08-20T05:48:23;21.02;;;13.38;;
16737;SDS011;17906;47.684;10.806;2022-08-20T05:50:50;21.65;;;14.05;;
16737;SDS011;17906;47.684;10.806;2022-08-20T05:53:20;20.90;;;13.80;;
16737;SDS011;17906;47.684;10.806;2022-08-20T05:55:49;21.00;;;13.50;;
16737;SDS011;17906;47.684;10.806;2022-08-20T05:58:17;23.35;;;13.98;;
16737;SDS011;17906;47.684;10.806;2022-08-20T06:00:46;20.00;;;12.93;;
16737;SDS011;17906;47.684;10.806;2022-08-20T06:03:14;20.13;;;13.37;;
16737;SDS011;17906;47.684;10.806;2022-08-20T06:05:58;22.50;;;13.67;;
16737;SDS011;17906;47.684;10.806;2022-08-20T06:08:25;20.93;;;12.80;;
16737;SDS011;17906;47.684;10.806;2022-08-20T06:10:54;19.40;;;12.60;;
16737;SDS011;17906;47.684;10.806;2022-08-20T06:13:20;19.67;;;12.63;;
16737;SDS011;17906;47.684;10.806;2022-08-20T06:15:47;18.50;;;12.90;;
16737;SDS011;17906;47.684;10.806;2022-08-20T06:18:14;19.57;;;12.53;;
16737;SDS011;17906;47.684;10.806;2022-08-20T06:20:41;22.67;;;14.10;;
16737;SDS011;17906;47.684;10.806;2022-08-20T06:23:10;20.03;;;13.63;;
16737;SDS011;17906;47.684;10.806;2022-08-20T06:25:36;20.70;;;13.27;;
16737;SDS011;17906;47.684;10.806;2022-08-20T06:28:05;19.50;;;13.47;;
16737;SDS011;17906;47.684;10.806;2022-08-20T06:30:33;23.30;;;14.03;;
16737;SDS011;17906;47.684;10.806;2022-08-20T06:33:00;18.00;;;12.50;;
16737;SDS011;17906;47.684;10.806;2022-08-20T06:35:27;18.13;;;12.07;;
16737;SDS011;17906;47.684;10.806;2022-08-20T06:37:54;18.30;;;11.50;;
16737;SDS011;17906;47.684;10.806;2022-08-20T06:40:24;18.88;;;11.25;;
16737;SDS011;17906;47.684;10.806;2022-08-20T06:42:53;16.58;;;11.23;;
16737;SDS011;17906;47.684;10.806;2022-08-20T06:45:23;16.37;;;11.47;;
16737;SDS011;17906;47.684;10.806;2022-08-20T06:47:51;17.70;;;11.17;;
16737;SDS011;17906;47.684;10.806;2022-08-20T06:50:21;19.90;;;12.02;;
16737;SDS011;17906;47.684;10.806;2022-08-20T06:52:48;17.02;;;12.52;;
16737;SDS011;17906;47.684;10.806;2022-08-20T06:55:15;16.15;;;11.05;;
16737;SDS011;17906;47.684;10.806;2022-08-20T06:57:42;16.42;;;11.02;;
16737;SDS011;17906;47.684;10.806;2022-08-20T07:00:10;18.10;;;11.90;;
16737;SDS011;17906;47.684;10.806;2022-08-20T07:02:41;17.65;;;11.77;;
16737;SDS011;17906;47.684;10.806;2022-08-20T07:05:08;16.60;;;12.05;;
16737;SDS011;17906;47.684;10.806;2022-08-20T07:07:35;17.40;;;11.35;;
16737;SDS011;17906;47.684;10.806;2022-08-20T07:10:04;17.92;;;11.70;;
16737;SDS011;17906;47.684;10.806;2022-08-20T07:12:33;18.23;;;11.85;;
16737;SDS011;17906;47.684;10.806;2022-08-20T07:15:00;20.20;;;11.65;;
16737;SDS011;17906;47.684;10.806;2022-08-20T07:17:27;18.48;;;12.43;;
16737;SDS011;17906;47.684;10.806;2022-08-20T07:19:55;19.77;;;12.33;;
16737;SDS011;17906;47.684;10.806;2022-08-20T07:22:22;18.25;;;11.40;;
16737;SDS011;17906;47.684;10.806;2022-08-20T07:24:49;19.25;;;12.40;;
16737;SDS011;17906;47.684;10.806;2022-08-20T07:27:19;17.73;;;12.07;;
16737;SDS011;17906;47.684;10.806;2022-08-20T07:29:46;18.90;;;12.38;;
16737;SDS011;17906;47.684;10.806;2022-08-20T07:32:31;17.10;;;11.38;;
16737;SDS011;17906;47.684;10.806;2022-08-20T07:35:03;19.77;;;12.38;;
16737;SDS011;17906;47.684;10.806;2022-08-20T07:37:36;17.65;;;11.45;;
16737;SDS011;17906;47.684;10.806;2022-08-20T07:40:04;16.02;;;10.90;;
16737;SDS011;17906;47.684;10.806;2022-08-20T07:42:32;15.60;;;10.85;;
16737;SDS011;17906;47.684;10.806;2022-08-20T07:44:58;16.23;;;10.18;;
16737;SDS011;17906;47.684;10.806;2022-08-20T07:47:25;14.30;;;9.68;;
16737;SDS011;17906;47.684;10.806;2022-08-20T07:49:51;15.05;;;9.35;;
16737;SDS011;17906;47.684;10.806;2022-08-20T07:52:20;11.27;;;8.32;;
16737;SDS011;17906;47.684;10.806;2022-08-20T07:54:46;12.20;;;8.13;;
16737;SDS011;17906;47.684;10.806;2022-08-20T07:57:13;11.85;;;7.78;;
16737;SDS011;17906;47.684;10.806;2022-08-20T07:59:41;10.02;;;7.15;;
16737;SDS011;17906;47.684;10.806;2022-08-20T08:02:09;8.18;;;5.97;;
16737;SDS011;17906;47.684;10.806;2022-08-20T08:04:36;8.90;;;5.78;;
16737;SDS011;17906;47.684;10.806;2022-08-20T08:07:02;7.90;;;5.13;;
16737;SDS011;17906;47.684;10.806;2022-08-20T08:09:31;5.55;;;4.05;;
16737;SDS011;17906;47.684;10.806;2022-08-20T08:11:59;5.07;;;3.70;;
16737;SDS011;17906;47.684;10.806;2022-08-20T08:14:28;6.13;;;4.25;;
16737;SDS011;17906;47.684;10.806;2022-08-20T08:16:58;14.75;;;9.50;;
16737;SDS011;17906;47.684;10.806;2022-08-20T08:19:29;8.30;;;5.65;;
16737;SDS011;17906;47.684;10.806;2022-08-20T08:22:03;6.35;;;4.03;;
16737;SDS011;17906;47.684;10.806;2022-08-20T08:24:32;4.78;;;3.67;;
16737;SDS011;17906;47.684;10.806;2022-08-20T08:26:59;6.18;;;3.88;;
16737;SDS011;17906;47.684;10.806;2022-08-20T08:29:25;7.03;;;3.88;;
16737;SDS011;17906;47.684;10.806;2022-08-20T08:31:53;4.80;;;3.20;;
16737;SDS011;17906;47.684;10.806;2022-08-20T08:34:20;3.60;;;2.60;;
16737;SDS011;17906;47.684;10.806;2022-08-20T08:36:47;4.15;;;2.90;;
16737;SDS011;17906;47.684;10.806;2022-08-20T08:39:15;5.30;;;3.17;;
16737;SDS011;17906;47.684;10.806;2022-08-20T08:41:44;4.80;;;3.65;;
16737;SDS011;17906;47.684;10.806;2022-08-20T08:44:16;4.65;;;3.40;;
16737;SDS011;17906;47.684;10.806;2022-08-20T08:46:48;3.83;;;3.28;;
16737;SDS011;17906;47.684;10.806;2022-08-20T08:49:18;4.20;;;3.17;;
16737;SDS011;17906;47.684;10.806;2022-08-20T08:51:49;3.63;;;2.92;;
16737;SDS011;17906;47.684;10.806;2022-08-20T08:54:20;3.35;;;2.70;;
16737;SDS011;17906;47.684;10.806;2022-08-20T08:56:51;3.85;;;3.00;;
16737;SDS011;17906;47.684;10.806;2022-08-20T08:59:18;3.65;;;3.05;;
16737;SDS011;17906;47.684;10.806;2022-08-20T09:01:47;3.88;;;2.53;;
16737;SDS011;17906;47.684;10.806;2022-08-20T09:04:15;4.30;;;2.80;;
16737;SDS011;17906;47.684;10.806;2022-08-20T09:06:46;3.67;;;2.90;;
16737;SDS011;17906;47.684;10.806;2022-08-20T09:09:15;4.50;;;3.13;;
16737;SDS011;17906;47.684;10.806;2022-08-20T09:11:45;5.25;;;2.60;;
16737;SDS011;17906;47.684;10.806;2022-08-20T09:14:15;3.35;;;2.70;;
16737;SDS011;17906;47.684;10.806;2022-08-20T09:16:42;3.00;;;2.55;;
16737;SDS011;17906;47.684;10.806;2022-08-20T09:19:10;2.47;;;1.92;;
16737;SDS011;17906;47.684;10.806;2022-08-20T09:21:37;2.90;;;2.15;;
16737;SDS011;17906;47.684;10.806;2022-08-20T09:24:03;4.50;;;2.17;;
16737;SDS011;17906;47.684;10.806;2022-08-20T09:26:30;3.55;;;1.85;;
16737;SDS011;17906;47.684;10.806;2022-08-20T09:28:57;2.78;;;2.08;;
16737;SDS011;17906;47.684;10.806;2022-08-20T09:31:25;3.20;;;1.83;;
16737;SDS011;17906;47.684;10.806;2022-08-20T09:33:51;2.33;;;2.00;;
16737;SDS011;17906;47.684;10.806;2022-08-20T09:36:18;4.40;;;1.90;;
16737;SDS011;17906;47.684;10.806;2022-08-20T09:38:45;2.38;;;1.85;;
16737;SDS011;17906;47.684;10.806;2022-08-20T09:41:12;2.55;;;1.70;;
16737;SDS011;17906;47.684;10.806;2022-08-20T09:43:39;2.70;;;1.58;;
16737;SDS011;17906;47.684;10.806;2022-08-20T09:46:06;2.20;;;1.80;;
16737;SDS011;17906;47.684;10.806;2022-08-20T09:48:34;3.22;;;1.80;;
16737;SDS011;17906;47.684;10.806;2022-08-20T09:51:01;3.83;;;2.00;;
16737;SDS011;17906;47.684;10.806;2022-08-20T09:53:28;3.15;;;1.60;;
16737;SDS011;17906;47.684;10.806;2022-08-20T09:55:55;1.65;;;1.52;;
16737;SDS011;17906;47.684;10.806;2022-08-20T09:58:26;4.38;;;3.00;;
16737;SDS011;17906;47.684;10.806;2022-08-20T10:00:59;3.15;;;2.40;;
16737;SDS011;17906;47.684;10.806;2022-08-20T10:03:28;4.13;;;1.90;;
16737;SDS011;17906;47.684;10.806;2022-08-20T10:05:56;3.35;;;1.50;;
16737;SDS011;17906;47.684;10.806;2022-08-20T10:08:23;2.28;;;1.50;;
16737;SDS011;17906;47.684;10.806;2022-08-20T10:10:51;1.95;;;1.75;;
16737;SDS011;17906;47.684;10.806;2022-08-20T10:13:17;2.17;;;1.60;;
16737;SDS011;17906;47.684;10.806;2022-08-20T10:15:44;3.85;;;1.50;;
16737;SDS011;17906;47.684;10.806;2022-08-20T10:18:11;2.72;;;1.65;;
16737;SDS011;17906;47.684;10.806;2022-08-20T10:20:38;3.08;;;1.45;;
16737;SDS011;17906;47.684;10.806;2022-08-20T10:23:06;2.33;;;1.50;;
16737;SDS011;17906;47.684;10.806;2022-08-20T10:25:33;1.75;;;1.40;;
16737;SDS011;17906;47.684;10.806;2022-08-20T10:28:00;2.53;;;1.58;;
16737;SDS011;17906;47.684;10.806;2022-08-20T10:30:27;1.80;;;1.60;;
16737;SDS011;17906;47.684;10.806;2022-08-20T10:32:53;1.77;;;1.50;;
16737;SDS011;17906;47.684;10.806;2022-08-20T10:35:20;3.05;;;1.60;;
16737;SDS011;17906;47.684;10.806;2022-08-20T10:37:47;1.45;;;1.35;;
16737;SDS011;17906;47.684;10.806;2022-08-20T10:40:15;2.42;;;1.70;;
16737;SDS011;17906;47.684;10.806;2022-08-20T10:42:42;2.72;;;1.70;;
16737;SDS011;17906;47.684;10.806;2022-08-20T10:45:09;1.88;;;1.65;;
16737;SDS011;17906;47.684;10.806;2022-08-20T10:47:36;3.15;;;1.80;;
16737;SDS011;17906;47.684;10.806;2022-08-20T10:50:04;2.80;;;1.80;;
16737;SDS011;17906;47.684;10.806;2022-08-20T10:52:33;2.28;;;1.42;;
16737;SDS011;17906;47.684;10.806;2022-08-20T10:55:00;2.15;;;1.67;;
16737;SDS011;17906;47.684;10.806;2022-08-20T10:57:30;2.38;;;1.85;;
16737;SDS011;17906;47.684;10.806;2022-08-20T10:59:58;2.78;;;1.60;;
16737;SDS011;17906;47.684;10.806;2022-08-20T11:02:26;1.88;;;1.63;;
16737;SDS011;17906;47.684;10.806;2022-08-20T11:04:53;2.47;;;1.50;;
16737;SDS011;17906;47.684;10.806;2022-08-20T11:07:23;3.60;;;1.80;;
16737;SDS011;17906;47.684;10.806;2022-08-20T11:09:51;1.95;;;1.75;;
16737;SDS011;17906;47.684;10.806;2022-08-20T11:12:19;2.13;;;1.70;;
16737;SDS011;17906;47.684;10.806;2022-08-20T11:14:49;1.98;;;1.67;;
16737;SDS011;17906;47.684;10.806;2022-08-20T11:17:18;2.03;;;1.63;;
16737;SDS011;17906;47.684;10.806;2022-08-20T11:19:46;2.05;;;1.63;;
16737;SDS011;17906;47.684;10.806;2022-08-20T11:22:12;3.70;;;1.70;;
16737;SDS011;17906;47.684;10.806;2022-08-20T11:24:40;1.98;;;1.70;;
16737;SDS011;17906;47.684;10.806;2022-08-20T11:27:06;2.17;;;1.67;;
16737;SDS011;17906;47.684;10.806;2022-08-20T11:29:34;2.25;;;1.55;;
16737;SDS011;17906;47.684;10.806;2022-08-20T11:32:04;2.13;;;1.90;;
16737;SDS011;17906;47.684;10.806;2022-08-20T11:34:31;3.50;;;2.03;;
16737;SDS011;17906;47.684;10.806;2022-08-20T11:36:58;2.67;;;1.60;;
16737;SDS011;17906;47.684;10.806;2022-08-20T11:39:25;2.03;;;1.70;;
16737;SDS011;17906;47.684;10.806;2022-08-20T11:41:52;1.98;;;1.80;;
16737;SDS011;17906;47.684;10.806;2022-08-20T11:44:18;3.10;;;1.73;;
16737;SDS011;17906;47.684;10.806;2022-08-20T11:46:45;2.33;;;1.88;;
16737;SDS011;17906;47.684;10.806;2022-08-20T11:49:13;3.13;;;2.17;;
16737;SDS011;17906;47.684;10.806;2022-08-20T11:51:40;3.10;;;1.92;;
16737;SDS011;17906;47.684;10.806;2022-08-20T11:54:07;3.53;;;1.80;;
16737;SDS011;17906;47.684;10.806;2022-08-20T11:56:33;2.80;;;1.90;;
16737;SDS011;17906;47.684;10.806;2022-08-20T11:59:00;3.35;;;2.03;;
16737;SDS011;17906;47.684;10.806;2022-08-20T12:01:27;2.47;;;2.08;;
16737;SDS011;17906;47.684;10.806;2022-08-20T12:03:53;2.03;;;1.80;;
16737;SDS011;17906;47.684;10.806;2022-08-20T12:06:21;2.60;;;1.85;;
16737;SDS011;17906;47.684;10.806;2022-08-20T12:08:48;2.70;;;1.95;;
16737;SDS011;17906;47.684;10.806;2022-08-20T12:11:15;2.70;;;1.70;;
16737;SDS011;17906;47.684;10.806;2022-08-20T12:13:41;2.08;;;1.80;;
16737;SDS011;17906;47.684;10.806;2022-08-20T12:16:08;4.78;;;2.40;;
16737;SDS011;17906;47.684;10.806;2022-08-20T12:18:35;2.60;;;2.00;;
16737;SDS011;17906;47.684;10.806;2022-08-20T12:21:02;3.13;;;2.50;;
16737;SDS011;17906;47.684;10.806;2022-08-20T12:23:30;2.08;;;1.88;;
16737;SDS011;17906;47.684;10.806;2022-08-20T12:25:57;2.97;;;2.22;;
16737;SDS011;17906;47.684;10.806;2022-08-20T12:28:26;3.22;;;2.20;;
16737;SDS011;17906;47.684;10.806;2022-08-20T12:30:53;3.88;;;2.13;;
16737;SDS011;17906;47.684;10.806;2022-08-20T12:33:20;5.93;;;2.53;;
16737;SDS011;17906;47.684;10.806;2022-08-20T12:35:47;2.60;;;1.92;;
16737;SDS011;17906;47.684;10.806;2022-08-20T12:38:13;2.40;;;2.08;;
16737;SDS011;17906;47.684;10.806;2022-08-20T12:40:42;2.20;;;2.00;;
16737;SDS011;17906;47.684;10.806;2022-08-20T12:43:08;2.72;;;2.20;;
16737;SDS011;17906;47.684;10.806;2022-08-20T12:45:35;2.85;;;2.25;;
16737;SDS011;17906;47.684;10.806;2022-08-20T12:48:03;2.72;;;2.33;;
16737;SDS011;17906;47.684;10.806;2022-08-20T12:50:33;4.00;;;2.17;;
16737;SDS011;17906;47.684;10.806;2022-08-20T12:53:01;2.97;;;2.38;;
16737;SDS011;17906;47.684;10.806;2022-08-20T12:55:29;4.57;;;2.47;;
16737;SDS011;17906;47.684;10.806;2022-08-20T12:57:58;5.82;;;3.00;;
16737;SDS011;17906;47.684;10.806;2022-08-20T13:00:27;4.53;;;2.72;;
16737;SDS011;17906;47.684;10.806;2022-08-20T13:02:56;3.60;;;2.95;;
16737;SDS011;17906;47.684;10.806;2022-08-20T13:05:25;4.50;;;3.33;;
16737;SDS011;17906;47.684;10.806;2022-08-20T13:07:52;3.90;;;3.28;;
16737;SDS011;17906;47.684;10.806;2022-08-20T13:10:21;5.93;;;4.00;;
16737;SDS011;17906;47.684;10.806;2022-08-20T13:12:49;4.32;;;3.63;;
16737;SDS011;17906;47.684;10.806;2022-08-20T13:15:18;5.70;;;3.95;;
16737;SDS011;17906;47.684;10.806;2022-08-20T13:17:49;4.80;;;3.95;;
16737;SDS011;17906;47.684;10.806;2022-08-20T13:20:16;9.57;;;4.78;;
16737;SDS011;17906;47.684;10.806;2022-08-20T13:22:43;5.20;;;4.07;;
16737;SDS011;17906;47.684;10.806;2022-08-20T13:25:10;5.40;;;4.15;;
16737;SDS011;17906;47.684;10.806;2022-08-20T13:27:41;4.78;;;3.88;;
16737;SDS011;17906;47.684;10.806;2022-08-20T13:30:09;7.47;;;4.18;;
16737;SDS011;17906;47.684;10.806;2022-08-20T13:32:40;6.05;;;4.10;;
16737;SDS011;17906;47.684;10.806;2022-08-20T13:35:07;5.70;;;3.80;;
16737;SDS011;17906;47.684;10.806;2022-08-20T13:37:36;4.10;;;3.50;;
16737;SDS011;17906;47.684;10.806;2022-08-20T13:40:03;4.38;;;3.53;;
16737;SDS011;17906;47.684;10.806;2022-08-20T13:42:31;5.25;;;3.90;;
16737;SDS011;17906;47.684;10.806;2022-08-20T13:44:58;5.20;;;3.53;;
16737;SDS011;17906;47.684;10.806;2022-08-20T13:47:26;4.53;;;3.53;;
16737;SDS011;17906;47.684;10.806;2022-08-20T13:49:56;3.95;;;3.55;;
16737;SDS011;17906;47.684;10.806;2022-08-20T13:52:24;4.55;;;3.47;;
16737;SDS011;17906;47.684;10.806;2022-08-20T13:54:52;4.97;;;3.60;;
16737;SDS011;17906;47.684;10.806;2022-08-20T13:57:19;4.97;;;3.60;;
16737;SDS011;17906;47.684;10.806;2022-08-20T13:59:47;4.97;;;3.58;;
16737;SDS011;17906;47.684;10.806;2022-08-20T14:02:16;5.05;;;3.92;;
16737;SDS011;17906;47.684;10.806;2022-08-20T14:04:43;5.60;;;3.42;;
16737;SDS011;17906;47.684;10.806;2022-08-20T14:07:14;6.07;;;3.83;;
16737;SDS011;17906;47.684;10.806;2022-08-20T14:09:44;4.13;;;3.45;;
16737;SDS011;17906;47.684;10.806;2022-08-20T14:12:12;4.45;;;3.53;;
16737;SDS011;17906;47.684;10.806;2022-08-20T14:14:40;4.30;;;3.50;;
16737;SDS011;17906;47.684;10.806;2022-08-20T14:17:12;5.53;;;4.03;;
16737;SDS011;17906;47.684;10.806;2022-08-20T14:19:40;4.32;;;3.35;;
16737;SDS011;17906;47.684;10.806;2022-08-20T14:22:07;4.43;;;2.95;;
16737;SDS011;17906;47.684;10.806;2022-08-20T14:24:35;2.83;;;2.15;;
16737;SDS011;17906;47.684;10.806;2022-08-20T14:27:02;2.90;;;1.98;;